EDDCEDDP

Guest
Details From EDDC - Dresden
To EDDP - Leipzig-halle
Flight Number -
Tags Generated
Created
Modified
Stats Distance 61 nm / 113 km
Max Altitude 0 ft / 0 m
Waypoints 2
Social Downloads 3
Likes 0
Share VATSIM

Download

Looking for another format? Having issues loading an existing format? Contact us
Advertisement - Login to hide

Notes

Generated

Route

EDDC EDDP

ID Type Via Altitude Latitude Longitude Leg Dist Tot Dist Heading (true) Name
O EDDC APT - 0 ft / 0 m 51.12425˚ 13.75544˚ - 0 nm - -
O EDDP APT - 0 ft / 0 m 51.41160˚ 12.20459˚ 60 nm 60 nm 287° / 286° -

Altitude Profile

Advertisement - Login to hide

EDDC

Details ICAO EDDC (DRS)
Name Dresden
Region Germany - Civil
Timezone Europe/Berlin (UTC+2.0)
Stats Elevation 752 ft / 229 m (AMSL)
Location 51.134366° 13.768065°
Runways 1
Magnetic Variation 3.856° E

METAR

EDDC 240820Z 08013KT 050V110 CAVOK 21/11 Q1021 NOSIG

Decode

TAF

TAF EDDC 240500Z 2406/2506 08010KT CAVOK BECMG 2408/2411 08015G25KT BECMG 2417/2419 08007KT

Decode

Departure Runways

ID Width Length Bearing (true) Bearing (mag) Surface Threshold Offset Overrun Length
04 197 ft / 60 m 9,348 ft / 2,849 m 40.74° 36.88° Concrete 0 ft / 0 m 0 ft / 0 m
22 197 ft / 60 m 9,348 ft / 2,849 m 220.76° 216.90° Concrete 984 ft / 300 m 0 ft / 0 m

EDDP

Details ICAO EDDP (LEJ)
Name Leipzig-Halle
Region Germany - Civil
Timezone Europe/Berlin (UTC+2.0)
Stats Elevation 464 ft / 141 m (AMSL)
Location 51.422631° 12.236042°
Runways 2
Magnetic Variation 3.453° E

METAR

EDDP 240820Z 07010KT CAVOK 18/12 Q1021 NOSIG

Decode

TAF

TAF EDDP 240500Z 2406/2506 06012KT CAVOK PROB30 TEMPO 2409/2415 08015G25KT BECMG 2415/2417 07007KT

Decode

Destination Runways

ID Width Length Bearing (true) Bearing (mag) Surface Threshold Offset Overrun Length
08L 148 ft / 45 m 11,776 ft / 3,589 m 85.70° 82.25° Concrete 0 ft / 0 m 0 ft / 0 m
08R 197 ft / 60 m 11,777 ft / 3,590 m 85.68° 82.23° Concrete 0 ft / 0 m 0 ft / 0 m
26L 197 ft / 60 m 11,777 ft / 3,590 m 265.72° 262.27° Concrete 0 ft / 0 m 0 ft / 0 m
26R 148 ft / 45 m 11,776 ft / 3,589 m 265.74° 262.29° Concrete 0 ft / 0 m 0 ft / 0 m

Approach Navaids

Runway Type Ident Frequency Range Bearing (true) Bearing (mag) Slope Elevation
08L Localiser ILNE 108.55 MHz 18 nm / 33 km 85.75° 82.30° - 463 ft / 141 m (AMSL)
08L Glidescope ILNE 108.55 MHz 15 nm / 28 km 85.84° 82.38° 3.00° 463 ft / 141 m (AMSL)
08R Localiser ILSR 111.90 MHz 18 nm / 33 km 85.75° 82.30° - 463 ft / 141 m (AMSL)
08R Glidescope ILSR 111.90 MHz 10 nm / 19 km 85.84° 82.38° 3.00° 463 ft / 141 m (AMSL)
26L Localiser ILSL 110.30 MHz 18 nm / 33 km 265.70° 262.24° - 463 ft / 141 m (AMSL)
26L Glidescope ILSL 110.30 MHz 20 nm / 37 km 265.82° 262.36° 3.00° 463 ft / 141 m (AMSL)
26R Localiser ILNW 108.35 MHz 18 nm / 33 km 265.70° 262.24° - 463 ft / 141 m (AMSL)
26R Glidescope ILNW 108.35 MHz 15 nm / 28 km 265.82° 262.36° 3.00° 463 ft / 141 m (AMSL)

Popular Alternatives